createdAt,value
2017-09-09T00:00:21.844Z,93.4
2017-09-09T00:01:21.863Z,93.02
2017-09-09T00:02:36.501Z,93.21
2017-09-09T00:03:21.907Z,93.12
2017-09-09T00:04:21.925Z,93.98
2017-09-09T00:05:21.644Z,94.07
2017-09-09T00:06:21.660Z,92.83
2017-09-09T00:07:21.994Z,92.83
2017-09-09T00:08:21.714Z,92.92
2017-09-09T00:09:22.036Z,92.92
2017-09-09T00:10:21.753Z,93.02
2017-09-09T00:11:21.782Z,92.63
2017-09-09T00:12:22.108Z,92.54
2017-09-09T00:13:22.138Z,92.35
2017-09-09T00:14:22.148Z,92.83
2017-09-09T00:15:22.189Z,92.63
2017-09-09T00:16:21.892Z,93.4
2017-09-09T00:17:21.916Z,93.4
2017-09-09T00:18:36.866Z,93.69
2017-09-09T00:19:21.990Z,93.21
2017-09-09T00:20:22.296Z,93.5
2017-09-09T00:21:22.001Z,93.45
2017-09-09T00:22:22.337Z,93.79
2017-09-09T00:23:22.359Z,93.69
2017-09-09T00:24:22.384Z,93.59
2017-09-09T00:25:22.410Z,93.98
2017-09-09T00:26:22.121Z,93.79
2017-09-09T00:27:22.453Z,93.79
2017-09-09T00:28:22.482Z,93.21
2017-09-09T00:29:22.491Z,93.21
2017-09-09T00:31:22.538Z,94.02
2017-09-09T00:33:37.204Z,93.88
2017-09-09T00:34:22.615Z,93.55
2017-09-09T00:35:22.639Z,93.79
2017-09-09T00:36:22.650Z,93.12
2017-09-09T00:37:22.677Z,93.79
2017-09-09T00:38:22.698Z,93.79
2017-09-09T00:39:22.719Z,93.69
2017-09-09T00:40:22.748Z,92.92
2017-09-09T00:41:22.765Z,93.16
2017-09-09T00:42:22.483Z,93.16
2017-09-09T00:43:22.821Z,93.84
2017-09-09T00:44:22.841Z,93.84
2017-09-09T00:45:22.855Z,93.55
2017-09-09T00:46:22.875Z,93.16
2017-09-09T00:47:22.899Z,93.35
2017-09-09T00:48:22.921Z,93.35
2017-09-09T00:49:22.947Z,93.35
2017-09-09T00:50:22.656Z,93.64
2017-09-09T00:52:23.016Z,93.35
2017-09-09T00:53:22.725Z,93.02
2017-09-09T00:54:23.066Z,93.21
2017-09-09T00:55:22.772Z,93.02
2017-09-09T00:56:23.105Z,92.88
2017-09-09T00:57:23.133Z,92.25
2017-09-09T00:58:23.162Z,92.16
2017-09-09T01:00:23.197Z,92.54
2017-09-09T01:01:23.227Z,92.83
2017-09-09T01:02:23.245Z,92.59
2017-09-09T01:03:23.262Z,92.06
2017-09-09T01:04:22.978Z,91.87
2017-09-09T01:05:37.930Z,91.77
2017-09-09T01:06:23.329Z,92.06
2017-09-09T01:08:23.382Z,92.73
2017-09-09T01:09:23.407Z,92.25
2017-09-09T01:10:23.422Z,92.35
2017-09-09T01:12:23.467Z,92.44
2017-09-09T01:13:23.488Z,92.21
2017-09-09T01:14:23.511Z,92.54
2017-09-09T01:15:23.540Z,92.73
2017-09-09T01:16:23.554Z,92.16
2017-09-09T01:17:23.584Z,91.87
2017-09-09T01:18:23.600Z,91.77
2017-09-09T01:19:23.630Z,91.77
2017-09-09T01:20:23.646Z,91.58
2017-09-09T01:21:38.292Z,91.87
2017-09-09T01:22:23.390Z,91.39
2017-09-09T01:23:23.715Z,92.25
2017-09-09T01:24:23.432Z,92.16
2017-09-09T01:25:23.770Z,92.25
2017-09-09T01:26:23.791Z,92.25
2017-09-09T01:27:23.811Z,92.35
2017-09-09T01:28:23.828Z,92.16
2017-09-09T01:29:23.869Z,92.54
2017-09-09T01:30:23.871Z,92.54
2017-09-09T01:31:23.893Z,92.16
2017-09-09T01:32:23.927Z,92.21
2017-09-09T01:33:23.949Z,92.06
2017-09-09T01:34:23.960Z,92.63
2017-09-09T01:35:23.992Z,92.73
2017-09-09T01:36:24.008Z,92.63
2017-09-09T01:37:38.655Z,92.16
2017-09-09T01:38:24.062Z,91.97
2017-09-09T01:39:24.077Z,92.06
2017-09-09T01:40:24.112Z,92.44
2017-09-09T01:41:24.119Z,92.06
2017-09-09T01:42:24.146Z,92.06
2017-09-09T01:43:24.165Z,91.97
2017-09-09T01:44:24.199Z,92.25
2017-09-09T01:45:23.906Z,92.16
2017-09-09T01:46:24.246Z,92.35
2017-09-09T01:47:24.261Z,92.49
2017-09-09T01:48:24.289Z,92.49
2017-09-09T01:49:24.303Z,92.59
2017-09-09T01:50:24.323Z,92.69
2017-09-09T01:51:24.350Z,92.25
2017-09-09T01:52:24.379Z,91.97
2017-09-09T01:53:39.014Z,91.77
2017-09-09T01:54:24.422Z,91.68
2017-09-09T01:55:24.443Z,91.3
2017-09-09T01:56:24.459Z,91.49
2017-09-09T01:57:24.493Z,91.39
2017-09-09T01:58:24.507Z,91.39
2017-09-09T01:59:24.218Z,90.82
2017-09-09T02:00:24.557Z,91.87
2017-09-09T02:01:24.574Z,91.58
2017-09-09T02:02:24.610Z,91.39
2017-09-09T02:03:24.629Z,91.39
2017-09-09T02:04:24.641Z,91.2
2017-09-09T02:05:24.664Z,90.72
2017-09-09T02:06:24.694Z,90.72
2017-09-09T02:07:24.770Z,90.34
2017-09-09T02:08:39.356Z,90.91
2017-09-09T02:09:24.767Z,90.15
2017-09-09T02:10:24.787Z,90.82
2017-09-09T02:11:24.799Z,90.91
2017-09-09T02:12:24.826Z,90.44
2017-09-09T02:13:24.851Z,90.72
2017-09-09T02:14:24.878Z,90.72
2017-09-09T02:15:24.902Z,90.63
2017-09-09T02:16:24.916Z,90.44
2017-09-09T02:17:24.635Z,90.44
2017-09-09T02:18:24.957Z,90.44
2017-09-09T02:19:24.671Z,90.82
2017-09-09T02:20:25.011Z,90.63
2017-09-09T02:21:25.028Z,90.82
2017-09-09T02:22:25.051Z,90.44
2017-09-09T02:24:25.096Z,90.63
2017-09-09T02:25:25.127Z,91.11
2017-09-09T02:26:24.835Z,90.91
2017-09-09T02:27:24.858Z,91.39
2017-09-09T02:28:24.876Z,91.3
2017-09-09T02:29:25.216Z,90.91
2017-09-09T02:30:24.927Z,90.91
2017-09-09T02:31:25.264Z,91.58
2017-09-09T02:32:24.977Z,91.39
2017-09-09T02:33:25.313Z,91.3
2017-09-09T02:34:25.024Z,91.01
2017-09-09T02:35:25.035Z,90.91
2017-09-09T02:36:25.366Z,90.63
2017-09-09T02:37:25.400Z,90.63
2017-09-09T02:38:25.423Z,90.91
2017-09-09T02:39:25.446Z,90.91
2017-09-09T02:40:40.079Z,90.34
2017-09-09T02:41:25.493Z,90.53
2017-09-09T02:42:25.513Z,90.72
2017-09-09T02:43:25.526Z,90.63
2017-09-09T02:44:25.548Z,91.01
2017-09-09T02:45:25.569Z,90.91
2017-09-09T02:46:25.602Z,90.05
2017-09-09T02:47:25.621Z,90.91
2017-09-09T02:48:25.647Z,90.82
2017-09-09T02:50:25.696Z,90.63
2017-09-09T02:51:25.407Z,90.63
2017-09-09T02:52:25.739Z,90.53
2017-09-09T02:53:25.759Z,90.82
2017-09-09T02:54:25.786Z,91.01
2017-09-09T02:55:25.808Z,91.01
2017-09-09T02:56:40.444Z,90.91
2017-09-09T02:57:25.887Z,91.11
2017-09-09T02:58:25.865Z,90.91
2017-09-09T02:59:25.898Z,90.82
2017-09-09T03:00:25.916Z,90.91
2017-09-09T03:01:25.932Z,90.53
2017-09-09T03:02:25.649Z,90.63
2017-09-09T03:03:25.978Z,90.53
2017-09-09T03:04:26.010Z,90.72
2017-09-09T03:05:26.021Z,90.91
2017-09-09T03:06:26.044Z,90.91
2017-09-09T03:07:25.764Z,91.11
2017-09-09T03:08:26.092Z,90.44
2017-09-09T03:09:26.114Z,90.82
2017-09-09T03:10:25.829Z,90.91
2017-09-09T03:11:26.160Z,91.11
2017-09-09T03:12:40.805Z,91.01
2017-09-09T03:13:26.220Z,90.34
2017-09-09T03:14:26.240Z,90.15
2017-09-09T03:15:26.264Z,90.15
2017-09-09T03:16:26.281Z,89.86
2017-09-09T03:17:26.304Z,90.63
2017-09-09T03:18:26.321Z,90.82
2017-09-09T03:19:26.340Z,90.24
2017-09-09T03:20:26.370Z,90.05
2017-09-09T03:21:26.388Z,90.24
2017-09-09T03:22:26.408Z,90.72
2017-09-09T03:24:26.467Z,90.15
2017-09-09T03:25:26.474Z,90.72
2017-09-09T03:27:26.526Z,90.24
2017-09-09T03:28:41.166Z,90.24
2017-09-09T03:30:26.594Z,90.53
2017-09-09T03:32:26.635Z,90.34
2017-09-09T03:33:26.657Z,90.53
2017-09-09T03:34:26.682Z,90.53
2017-09-09T03:35:26.711Z,90.72
2017-09-09T03:36:26.726Z,90.82
2017-09-09T03:37:26.754Z,90.05
2017-09-09T03:38:26.770Z,90.91
2017-09-09T03:39:26.802Z,90.72
2017-09-09T03:40:26.824Z,90.82
2017-09-09T03:41:26.847Z,90.82
2017-09-09T03:42:26.869Z,90.82
2017-09-09T03:43:41.509Z,91.01
2017-09-09T03:44:26.909Z,90.72
2017-09-09T03:45:26.941Z,90.53
2017-09-09T03:46:26.958Z,91.3
2017-09-09T03:47:26.985Z,91.2
2017-09-09T03:48:27.002Z,90.82
2017-09-09T03:49:27.028Z,91.3
2017-09-09T03:50:26.745Z,91.2
2017-09-09T03:51:27.080Z,91.49
2017-09-09T03:52:27.094Z,91.39
2017-09-09T03:54:27.141Z,91.68
2017-09-09T03:55:27.155Z,91.3
2017-09-09T03:56:26.877Z,90.91
2017-09-09T03:57:27.201Z,91.77
2017-09-09T03:58:27.230Z,91.68
2017-09-09T03:59:27.269Z,91.39
2017-09-09T04:00:27.276Z,91.58
2017-09-09T04:01:27.298Z,91.58
2017-09-09T04:02:27.323Z,91.58
2017-09-09T04:03:27.340Z,91.77
2017-09-09T04:04:27.377Z,91.49
2017-09-09T04:05:27.383Z,91.39
2017-09-09T04:06:27.414Z,91.58
2017-09-09T04:07:27.432Z,91.68
2017-09-09T04:08:27.450Z,91.49
2017-09-09T04:10:27.509Z,91.01
2017-09-09T04:11:27.524Z,91.58
2017-09-09T04:12:27.547Z,91.49
2017-09-09T04:13:27.565Z,91.11
2017-09-09T04:14:27.589Z,91.49
2017-09-09T04:15:42.232Z,91.77
2017-09-09T04:16:27.630Z,91.39
2017-09-09T04:18:27.684Z,91.77
2017-09-09T04:19:27.713Z,91.49
2017-09-09T04:20:27.725Z,91.58
2017-09-09T04:21:27.760Z,91.39
2017-09-09T04:22:27.774Z,90.72
2017-09-09T04:23:27.804Z,91.58
2017-09-09T04:25:27.845Z,91.58
2017-09-09T04:26:27.872Z,90.82
2017-09-09T04:27:27.888Z,91.39
2017-09-09T04:28:27.915Z,91.39
2017-09-09T04:29:27.933Z,91.01
2017-09-09T04:30:27.951Z,91.11
2017-09-09T04:31:42.596Z,91.01
2017-09-09T04:32:27.996Z,91.3
2017-09-09T04:33:28.020Z,90.82
2017-09-09T04:34:28.041Z,90.82
2017-09-09T04:35:28.075Z,90.63
2017-09-09T04:36:28.086Z,91.11
2017-09-09T04:38:28.135Z,90.82
2017-09-09T04:39:28.167Z,90.53
2017-09-09T04:40:28.181Z,91.2
2017-09-09T04:42:28.222Z,90.82
2017-09-09T04:43:28.256Z,90.44
2017-09-09T04:44:28.274Z,90.44
2017-09-09T04:45:28.288Z,90.82
2017-09-09T04:46:28.314Z,91.01
2017-09-09T04:47:42.956Z,90.53
2017-09-09T04:48:28.365Z,90.34
2017-09-09T04:49:28.379Z,90.82
2017-09-09T04:50:28.406Z,90.63
2017-09-09T04:51:28.435Z,90.15
2017-09-09T04:52:28.450Z,90.44
2017-09-09T04:53:28.476Z,90.82
2017-09-09T04:54:28.496Z,90.82
2017-09-09T04:55:28.513Z,90.44
2017-09-09T04:56:28.239Z,90.44
2017-09-09T04:57:28.564Z,90.24
2017-09-09T04:58:28.584Z,90.58
2017-09-09T04:59:28.611Z,89.9
2017-09-09T05:00:28.631Z,90
2017-09-09T05:01:28.662Z,90.39
2017-09-09T05:02:28.676Z,90.34
2017-09-09T05:03:43.322Z,90.48
2017-09-09T05:04:28.723Z,90.29
2017-09-09T05:05:28.754Z,90.34
2017-09-09T05:06:28.775Z,90.39
2017-09-09T05:07:28.789Z,89.95
2017-09-09T05:08:28.810Z,89.95
2017-09-09T05:10:28.857Z,90.48
2017-09-09T05:11:28.890Z,90
2017-09-09T05:12:28.910Z,90.48
2017-09-09T05:13:28.935Z,90.19
2017-09-09T05:14:28.945Z,90.09
2017-09-09T05:15:28.975Z,90.09
2017-09-09T05:16:28.997Z,90.48
2017-09-09T05:17:29.025Z,89.9
2017-09-09T05:18:43.665Z,89.52
2017-09-09T05:19:29.072Z,90
2017-09-09T05:20:29.088Z,89.9
2017-09-09T05:21:29.119Z,89.81
2017-09-09T05:22:29.141Z,89.23
2017-09-09T05:23:29.161Z,89.23
2017-09-09T05:24:29.188Z,89.33
2017-09-09T05:25:29.202Z,89.04
2017-09-09T05:26:29.231Z,89.04
2017-09-09T05:27:29.253Z,89.23
2017-09-09T05:28:29.267Z,88.95
2017-09-09T05:30:29.339Z,89.37
2017-09-09T05:31:29.343Z,89.28
2017-09-09T05:32:29.364Z,88.95
2017-09-09T05:33:29.395Z,89.33
2017-09-09T05:34:29.415Z,88.9
2017-09-09T05:35:29.477Z,88.7
2017-09-09T05:36:29.455Z,88.99
2017-09-09T05:37:29.481Z,88.8
2017-09-09T05:38:29.496Z,88.7
2017-09-09T05:39:29.526Z,88.7
2017-09-09T05:41:29.575Z,88.7
2017-09-09T05:42:29.587Z,89.09
2017-09-09T05:43:29.622Z,88.9
2017-09-09T05:44:29.640Z,89.47
2017-09-09T05:45:29.659Z,88.95
2017-09-09T05:46:29.685Z,88.95
2017-09-09T05:47:29.724Z,89.28
2017-09-09T05:48:29.731Z,88.76
2017-09-09T05:49:29.750Z,88.66
2017-09-09T05:50:44.396Z,88.8
2017-09-09T05:52:29.823Z,89.37
2017-09-09T05:53:29.840Z,89.09
2017-09-09T05:54:29.865Z,89.09
2017-09-09T05:55:29.897Z,89.28
2017-09-09T05:56:29.909Z,88.99
2017-09-09T05:57:29.930Z,88.99
2017-09-09T05:58:29.969Z,89.18
2017-09-09T06:00:30.003Z,88.9
2017-09-09T06:01:30.023Z,88.7
2017-09-09T06:02:30.059Z,88.13
2017-09-09T06:03:30.073Z,87.74
2017-09-09T06:04:30.102Z,87.74
2017-09-09T06:05:30.126Z,88.51
2017-09-09T06:06:44.762Z,87.65
2017-09-09T06:07:30.178Z,87.21
2017-09-09T06:08:29.879Z,87.5
2017-09-09T06:09:29.903Z,87.31
2017-09-09T06:10:30.231Z,87.21
2017-09-09T06:11:30.257Z,86.93
2017-09-09T06:12:30.278Z,86.4
2017-09-09T06:13:30.001Z,85.82
2017-09-09T06:14:30.333Z,85.82
2017-09-09T06:15:30.347Z,85.82
2017-09-09T06:16:30.372Z,85.63
2017-09-09T06:17:30.395Z,85.72
2017-09-09T06:18:30.426Z,85.72
2017-09-09T06:19:30.133Z,84.95
2017-09-09T06:20:30.468Z,85.63
2017-09-09T06:21:30.502Z,84.95
2017-09-09T06:22:45.134Z,85.82
2017-09-09T06:23:30.537Z,85.25
2017-09-09T06:24:30.566Z,85.44
2017-09-09T06:25:30.585Z,85.34
2017-09-09T06:26:30.613Z,85.05
2017-09-09T06:27:30.635Z,85.34
2017-09-09T06:28:30.343Z,85.92
2017-09-09T06:29:30.677Z,85.15
2017-09-09T06:30:30.698Z,85.82
2017-09-09T06:31:30.724Z,85.63
2017-09-09T06:32:30.805Z,85.44
2017-09-09T06:33:30.778Z,85.72
2017-09-09T06:35:30.509Z,85.34
2017-09-09T06:36:30.841Z,84.38
2017-09-09T06:37:30.866Z,84.48
2017-09-09T06:38:45.511Z,84.81
2017-09-09T06:39:30.920Z,84.52
2017-09-09T06:40:30.937Z,84.14
2017-09-09T06:41:30.965Z,84.04
2017-09-09T06:42:30.678Z,83.75
2017-09-09T06:43:31.006Z,83.22
2017-09-09T06:44:31.035Z,83.08
2017-09-09T06:45:31.063Z,83.03
2017-09-09T06:46:31.078Z,82.93
2017-09-09T06:47:31.114Z,82.84
2017-09-09T06:48:31.122Z,81.97
2017-09-09T06:49:31.159Z,81.59
2017-09-09T06:50:31.218Z,81.53
2017-09-09T06:51:31.202Z,81.63
2017-09-09T06:52:31.222Z,80.19
2017-09-09T06:53:45.866Z,80.28
2017-09-09T06:54:30.957Z,80.47
2017-09-09T06:55:31.295Z,80.28
2017-09-09T06:56:31.318Z,80.96
2017-09-09T06:57:31.336Z,80.09
2017-09-09T06:58:31.373Z,80.86
2017-09-09T06:59:31.393Z,81.15
2017-09-09T07:00:31.408Z,80.86
2017-09-09T07:01:31.434Z,80.28
2017-09-09T07:02:31.478Z,80.28
2017-09-09T07:03:31.484Z,80.19
2017-09-09T07:04:31.517Z,80.86
2017-09-09T07:05:31.221Z,80.47
2017-09-09T07:06:31.254Z,80.51
2017-09-09T07:07:31.580Z,80.19
2017-09-09T07:08:31.601Z,80.32
2017-09-09T07:09:31.632Z,80.28
2017-09-09T07:10:31.648Z,80.13
2017-09-09T07:11:31.368Z,80.13
2017-09-09T07:12:31.712Z,79.84
2017-09-09T07:13:31.421Z,79.65
2017-09-09T07:14:31.440Z,79.94
2017-09-09T07:15:31.772Z,79.84
2017-09-09T07:16:31.493Z,80.51
2017-09-09T07:17:31.822Z,80.22
2017-09-09T07:18:31.848Z,79.94
2017-09-09T07:19:31.866Z,79.55
2017-09-09T07:20:31.586Z,79.65
2017-09-09T07:21:31.925Z,79.94
2017-09-09T07:22:31.950Z,80.04
2017-09-09T07:23:31.966Z,80.04
2017-09-09T07:24:32.003Z,80.71
2017-09-09T07:25:46.634Z,79.84
2017-09-09T07:26:32.046Z,80.51
2017-09-09T07:27:32.063Z,80.04
2017-09-09T07:28:32.092Z,80.22
2017-09-09T07:29:32.115Z,81.09
2017-09-09T07:30:32.134Z,81.09
2017-09-09T07:31:32.168Z,81.38
2017-09-09T07:32:32.192Z,80.99
2017-09-09T07:33:32.217Z,81.19
2017-09-09T07:34:32.230Z,80.55
2017-09-09T07:35:32.265Z,81.61
2017-09-09T07:36:32.284Z,81.99
2017-09-09T07:37:32.310Z,81.42
2017-09-09T07:38:32.328Z,81.38
2017-09-09T07:39:32.365Z,81.76
2017-09-09T07:40:32.379Z,81.86
2017-09-09T07:41:47.025Z,83.01
2017-09-09T07:42:32.424Z,83.2
2017-09-09T07:43:32.458Z,83.01
2017-09-09T07:44:32.474Z,83.01
2017-09-09T07:45:32.548Z,83.87
2017-09-09T07:46:32.521Z,84.36
2017-09-09T07:47:32.552Z,83.97
2017-09-09T07:48:32.570Z,84.17
2017-09-09T07:49:32.603Z,84.64
2017-09-09T07:50:32.626Z,85.13
2017-09-09T07:51:32.649Z,84.64
2017-09-09T07:52:32.681Z,85.08
2017-09-09T07:53:32.695Z,86.81
2017-09-09T07:54:32.727Z,86.43
2017-09-09T07:55:32.743Z,86.81
2017-09-09T07:56:32.457Z,86.33
2017-09-09T07:57:47.412Z,88.45
2017-09-09T07:58:32.821Z,88.25
2017-09-09T07:59:32.848Z,87.29
2017-09-09T08:00:32.873Z,88.25
2017-09-09T08:02:32.599Z,88.06
2017-09-09T08:03:32.942Z,89.6
2017-09-09T08:04:33.003Z,89.12
2017-09-09T08:05:32.986Z,89.55
2017-09-09T08:06:33.004Z,89.69
2017-09-09T08:08:33.053Z,90.13
2017-09-09T08:09:33.089Z,90.37
2017-09-09T08:10:33.112Z,89.36
2017-09-09T08:11:33.135Z,89.26
2017-09-09T08:12:32.848Z,90.37
2017-09-09T08:13:47.799Z,90.08
2017-09-09T08:14:33.201Z,90.94
2017-09-09T08:15:33.227Z,89.65
2017-09-09T08:16:33.258Z,89.79
2017-09-09T08:17:33.278Z,90.75
2017-09-09T08:18:33.306Z,91.9
2017-09-09T08:20:33.352Z,91.76
2017-09-09T08:21:33.381Z,92.05
2017-09-09T08:22:33.394Z,92.43
2017-09-09T08:25:33.163Z,92.63
2017-09-09T08:26:33.490Z,94.01
2017-09-09T08:27:33.513Z,92.91
2017-09-09T08:28:48.159Z,93.3
2017-09-09T08:29:33.567Z,93.59
2017-09-09T08:30:33.285Z,94.35
2017-09-09T08:31:33.614Z,93.3
2017-09-09T08:32:33.640Z,93.1
2017-09-09T08:33:33.354Z,94.26
2017-09-09T08:34:33.382Z,95.6
2017-09-09T08:35:33.406Z,96.18
2017-09-09T08:36:33.423Z,94.93
2017-09-09T08:37:33.443Z,95.21
2017-09-09T08:38:33.471Z,95.7
2017-09-09T08:39:33.814Z,96.37
2017-09-09T08:40:33.837Z,97.14
2017-09-09T08:41:33.852Z,95.89
2017-09-09T08:42:33.874Z,95.98
2017-09-09T08:43:33.901Z,96.66
2017-09-09T08:44:33.923Z,96.66
2017-09-09T08:45:33.953Z,96.18
2017-09-09T08:46:34.002Z,95.79
2017-09-09T08:47:34.003Z,96.47
2017-09-09T08:48:34.021Z,96.75
2017-09-09T08:49:34.041Z,96.47
2017-09-09T08:50:34.074Z,96.89
2017-09-09T08:51:34.097Z,98.58
2017-09-09T08:52:34.116Z,98.72
2017-09-09T08:53:34.140Z,97.91
2017-09-09T08:54:34.162Z,98.14
2017-09-09T08:55:34.189Z,98.19
2017-09-09T08:56:34.209Z,97.91
2017-09-09T08:57:34.238Z,98.72
2017-09-09T08:58:34.254Z,97.61
2017-09-09T08:59:34.289Z,98.62
2017-09-09T09:00:48.928Z,99.54
2017-09-09T09:01:34.331Z,99.1
2017-09-09T09:02:34.354Z,99.25
2017-09-09T09:03:34.431Z,99.63
2017-09-09T09:04:34.410Z,98.67
2017-09-09T09:05:34.118Z,98.96
2017-09-09T09:06:34.460Z,98.1
2017-09-09T09:07:34.170Z,97.71
2017-09-09T09:08:34.507Z,98.1
2017-09-09T09:09:34.218Z,98
2017-09-09T09:10:34.241Z,96.94
2017-09-09T09:11:34.578Z,97.52
2017-09-09T09:12:34.593Z,97.71
2017-09-09T09:13:34.616Z,98.29
2017-09-09T09:14:34.646Z,98.77
2017-09-09T09:15:34.357Z,97.71
2017-09-09T09:16:49.314Z,97.42
2017-09-09T09:17:34.727Z,98.05
2017-09-09T09:18:34.741Z,97.14
2017-09-09T09:19:34.770Z,97.14
2017-09-09T09:20:34.782Z,97.14
2017-09-09T09:21:34.809Z,96.94
2017-09-09T09:22:34.528Z,96.85
2017-09-09T09:23:34.551Z,97.91
2017-09-09T09:24:34.579Z,98.58
2017-09-09T09:25:34.909Z,98.58
2017-09-09T09:26:34.620Z,98.67
2017-09-09T09:27:34.973Z,99.2
2017-09-09T09:28:34.672Z,98.82
2017-09-09T09:29:35.015Z,98.05
2017-09-09T09:30:35.024Z,97.47
2017-09-09T09:31:35.049Z,97.66
2017-09-09T09:32:49.698Z,97.42
2017-09-09T09:33:35.107Z,97.14
2017-09-09T09:35:34.847Z,96.56
2017-09-09T09:36:35.182Z,97.71
2017-09-09T09:37:35.199Z,97.33
2017-09-09T09:38:35.221Z,98.19
2017-09-09T09:39:35.244Z,98.86
2017-09-09T09:40:35.282Z,98
2017-09-09T09:41:35.301Z,98.86
2017-09-09T09:42:35.330Z,98.96
2017-09-09T09:43:35.340Z,98.77
2017-09-09T09:45:35.396Z,97.04
2017-09-09T09:46:35.424Z,95.26
2017-09-09T09:47:35.449Z,95.65
2017-09-09T09:48:50.084Z,96.56
2017-09-09T09:49:35.493Z,96.37
2017-09-09T09:50:35.513Z,97.14
2017-09-09T09:51:35.535Z,97.14
2017-09-09T09:52:35.567Z,97.33
2017-09-09T09:53:35.281Z,98.48
2017-09-09T09:54:35.605Z,98.77
2017-09-09T09:55:35.642Z,98.29
2017-09-09T09:56:35.656Z,98.63
2017-09-09T09:57:35.682Z,99.87
2017-09-09T09:58:35.713Z,99.99
2017-09-09T09:59:35.727Z,99.99
2017-09-09T10:00:35.754Z,99.99
2017-09-09T10:01:35.471Z,99.99
2017-09-09T10:02:35.503Z,99.99
2017-09-09T10:03:50.450Z,99.99
2017-09-09T10:04:35.860Z,99.99
2017-09-09T10:05:35.885Z,99.99
2017-09-09T10:06:35.906Z,99.99
2017-09-09T10:07:35.934Z,99.99
2017-09-09T10:08:35.959Z,99.99
2017-09-09T10:09:35.973Z,99.99
2017-09-09T10:11:36.047Z,99.99
2017-09-09T10:12:36.061Z,99.99
2017-09-09T10:14:36.102Z,99.99
2017-09-09T10:15:36.132Z,99.99
2017-09-09T10:16:36.155Z,99.63
2017-09-09T10:17:36.178Z,97.81
2017-09-09T10:18:35.891Z,98.39
2017-09-09T10:19:36.223Z,98.77
2017-09-09T10:20:36.249Z,98.86
2017-09-09T10:21:36.264Z,99.99
2017-09-09T10:22:36.293Z,99.44
2017-09-09T10:23:36.323Z,98.82
2017-09-09T10:24:36.345Z,97.38
2017-09-09T10:25:36.373Z,98.34
2017-09-09T10:26:36.387Z,98.05
2017-09-09T10:27:36.417Z,97.19
2017-09-09T10:28:36.438Z,97.09
2017-09-09T10:29:36.461Z,95.75
2017-09-09T10:30:36.483Z,95.45
2017-09-09T10:31:36.522Z,96.22
2017-09-09T10:32:36.534Z,95.94
2017-09-09T10:33:36.569Z,96.61
2017-09-09T10:34:36.275Z,97.28
2017-09-09T10:35:51.231Z,97.57
2017-09-09T10:36:36.634Z,98.44
2017-09-09T10:39:36.705Z,98.72
2017-09-09T10:40:36.741Z,99.21
2017-09-09T10:41:36.758Z,98.44
2017-09-09T10:42:36.785Z,99.68
2017-09-09T10:43:36.805Z,98.05
2017-09-09T10:44:36.829Z,98.05
2017-09-09T10:45:36.543Z,99.88
2017-09-09T10:46:36.885Z,99.88
2017-09-09T10:47:36.915Z,98.53
2017-09-09T10:48:36.934Z,98.19
2017-09-09T10:49:36.949Z,97.91
2017-09-09T10:51:51.622Z,97.42
2017-09-09T10:52:37.030Z,96.61
2017-09-09T10:53:37.046Z,97.09
2017-09-09T10:54:37.083Z,96.9
2017-09-09T10:55:37.103Z,98.63
2017-09-09T10:56:37.120Z,97.47
2017-09-09T10:58:37.174Z,98.24
2017-09-09T11:00:37.217Z,97.28
2017-09-09T11:01:37.246Z,96.61
2017-09-09T11:02:37.306Z,97.09
2017-09-09T11:03:36.986Z,96.32
2017-09-09T11:04:37.315Z,97.47
2017-09-09T11:05:37.349Z,96.7
2017-09-09T11:06:37.363Z,95.03
2017-09-09T11:07:52.012Z,95.03
2017-09-09T11:08:37.411Z,94.93
2017-09-09T11:09:37.438Z,95.03
2017-09-09T11:10:37.467Z,93.77
2017-09-09T11:11:37.488Z,94.64
2017-09-09T11:12:37.511Z,94.83
2017-09-09T11:14:37.258Z,94.06
2017-09-09T11:15:37.587Z,95.12
2017-09-09T11:16:37.299Z,94.06
2017-09-09T11:17:37.641Z,94.93
2017-09-09T11:18:37.667Z,94.06
2017-09-09T11:19:37.742Z,95.31
2017-09-09T11:20:37.717Z,94.06
2017-09-09T11:21:37.732Z,94.35
2017-09-09T11:22:37.763Z,94.35
2017-09-09T11:23:52.402Z,94.26
2017-09-09T11:24:37.811Z,94.06
2017-09-09T11:25:37.846Z,93.68
2017-09-09T11:27:37.879Z,94.16
2017-09-09T11:28:37.903Z,94.83
2017-09-09T11:29:37.621Z,95.21
2017-09-09T11:30:37.953Z,95.03
2017-09-09T11:31:37.975Z,95.94
2017-09-09T11:32:38.008Z,94.78
2017-09-09T11:33:38.023Z,95.98
2017-09-09T11:34:38.055Z,96.17
2017-09-09T11:35:38.084Z,95.65
2017-09-09T11:36:38.110Z,96.7
2017-09-09T11:37:38.133Z,95.84
2017-09-09T11:38:52.770Z,95.75
2017-09-09T11:39:38.183Z,95.55
2017-09-09T11:40:38.204Z,95.84
2017-09-09T11:41:38.233Z,96.51
2017-09-09T11:42:38.249Z,97.19
2017-09-09T11:43:38.276Z,96.8
2017-09-09T11:44:38.296Z,97.38
2017-09-09T11:45:38.325Z,97.19
2017-09-09T11:46:38.346Z,95.94
2017-09-09T11:47:38.379Z,96.8
2017-09-09T11:48:38.392Z,96.8
2017-09-09T11:50:38.441Z,96.13
2017-09-09T11:51:38.461Z,96.13
2017-09-09T11:53:38.518Z,96.89
2017-09-09T11:54:38.546Z,95.55
2017-09-09T11:55:38.568Z,96.99
2017-09-09T11:56:38.595Z,96.61
2017-09-09T11:57:38.610Z,95.84
2017-09-09T11:59:38.356Z,95.17
2017-09-09T12:00:38.691Z,96.27
2017-09-09T12:01:38.708Z,95.65
2017-09-09T12:02:38.736Z,95.89
2017-09-09T12:03:38.767Z,95.7
2017-09-09T12:05:38.500Z,95.94
2017-09-09T12:06:38.835Z,95.65
2017-09-09T12:07:38.851Z,95.65
2017-09-09T12:08:38.882Z,95.75
2017-09-09T12:09:38.905Z,95.26
2017-09-09T12:10:53.547Z,95.07
2017-09-09T12:11:38.636Z,94.59
2017-09-09T12:12:38.981Z,94.88
2017-09-09T12:13:38.692Z,93.54
2017-09-09T12:14:39.017Z,94.01
2017-09-09T12:15:39.051Z,93.73
2017-09-09T12:16:39.065Z,93.44
2017-09-09T12:17:39.093Z,93.63
2017-09-09T12:19:39.150Z,92.72
2017-09-09T12:20:39.163Z,92.81
2017-09-09T12:21:39.186Z,93.39
2017-09-09T12:23:39.240Z,91.66
2017-09-09T12:24:38.955Z,91.47
2017-09-09T12:25:38.979Z,91.66
2017-09-09T12:26:53.936Z,91.47
2017-09-09T12:27:39.026Z,91.08
2017-09-09T12:28:39.360Z,91.56
2017-09-09T12:29:39.433Z,90.31
2017-09-09T12:30:39.421Z,90.99
2017-09-09T12:31:39.434Z,91.95
2017-09-09T12:32:39.151Z,90.8
2017-09-09T12:33:39.177Z,89.93
2017-09-09T12:36:39.553Z,90.12
2017-09-09T12:37:39.587Z,90.22
2017-09-09T12:38:39.599Z,90.03
2017-09-09T12:39:39.623Z,89.74
2017-09-09T12:40:39.649Z,90.22
2017-09-09T12:41:39.683Z,89.36
2017-09-09T12:42:54.318Z,89.36
2017-09-09T12:43:39.419Z,89.07
2017-09-09T12:44:39.437Z,88.97
2017-09-09T12:47:39.511Z,88.63
2017-09-09T12:48:39.846Z,88.06
2017-09-09T12:49:39.882Z,88.63
2017-09-09T12:50:39.583Z,87.57
2017-09-09T12:51:39.617Z,87.29
2017-09-09T12:52:39.946Z,88.15
2017-09-09T12:53:39.975Z,88.15
2017-09-09T12:54:39.992Z,88.15
2017-09-09T12:55:40.016Z,88.73
2017-09-09T12:56:40.045Z,88.92
2017-09-09T12:57:40.064Z,89.01
2017-09-09T12:58:54.707Z,89.36
2017-09-09T12:59:40.118Z,89.16
2017-09-09T13:00:40.144Z,89.36
2017-09-09T13:01:40.170Z,89.54
2017-09-09T13:02:40.196Z,89.26
2017-09-09T13:03:40.216Z,89.54
2017-09-09T13:04:40.251Z,89.74
2017-09-09T13:05:40.255Z,90.12
2017-09-09T13:06:40.282Z,89.98
2017-09-09T13:07:40.318Z,90.94
2017-09-09T13:08:40.339Z,90.46
2017-09-09T13:09:40.354Z,89.93
2017-09-09T13:10:40.389Z,90.66
2017-09-09T13:11:40.400Z,90.7
2017-09-09T13:12:40.467Z,90.99
2017-09-09T13:13:55.072Z,90.99
2017-09-09T13:14:40.473Z,90.94
2017-09-09T13:15:40.509Z,91.61
2017-09-09T13:17:40.558Z,92.77
2017-09-09T13:18:40.582Z,92.57
2017-09-09T13:19:40.597Z,93.44
2017-09-09T13:20:40.622Z,93.63
2017-09-09T13:21:40.658Z,92.77
2017-09-09T13:22:40.680Z,93.25
2017-09-09T13:23:40.694Z,93.34
2017-09-09T13:24:40.721Z,92.38
2017-09-09T13:25:40.743Z,92.57
2017-09-09T13:26:40.775Z,92.91
2017-09-09T13:27:40.788Z,93.87
2017-09-09T13:28:40.817Z,94.21
2017-09-09T13:29:40.542Z,93.54
2017-09-09T13:30:40.869Z,94.59
2017-09-09T13:31:40.578Z,94.4
2017-09-09T13:32:40.911Z,94.4
2017-09-09T13:33:40.635Z,93.34
2017-09-09T13:34:40.960Z,94.31
2017-09-09T13:35:40.991Z,94.11
2017-09-09T13:36:41.006Z,94.4
2017-09-09T13:37:41.041Z,94.78
2017-09-09T13:39:41.090Z,94.83
2017-09-09T13:40:41.103Z,95.31
2017-09-09T13:41:40.818Z,95.31
2017-09-09T13:42:41.155Z,95.07
2017-09-09T13:43:41.176Z,95.17
2017-09-09T13:44:40.892Z,95.94
2017-09-09T13:45:55.843Z,94.4
2017-09-09T13:46:41.246Z,94.88